Time;durP1;ratioP1;P1;durP2;ratioP2;P2;SDS_P1;SDS_P2;PMS_P1;PMS_P2;Temp;Humidity;BMP_temperature;BMP_pressure;BME280_temperature;BME280_humidity;BME280_pressure;Samples;Min_cycle;Max_cycle;Signal;HPM_P1;HPM_P2
2023/02/26 00:00:52;;;;;;;;;;;;;;;;;;6151801;23;20776;-86
2023/02/26 00:03:19;;;;;;;;;;;;;;;;;;6127721;23;19952;-87
2023/02/26 00:05:47;;;;;;;;;;;;;;;;;;6154516;23;20344;-87
2023/02/26 00:08:16;;;;;;;4.00;0.80;;;;;;;;;;6127017;23;19920;-85
2023/02/26 00:10:44;;;;;;;3.65;0.50;;;;;;;;;;6151731;23;20542;-85
2023/02/26 00:13:11;;;;;;;;;;;;;;;;;;6127380;23;20028;-87
2023/02/26 00:15:39;;;;;;;;;;;;;;;;;;6128332;23;19920;-86
2023/02/26 00:18:06;;;;;;;;;;;;;;;;;;6154469;23;19935;-88
2023/02/26 00:20:36;;;;;;;0.70;0.45;;;;;;;;;;6154192;23;20001;-88
2023/02/26 00:23:04;;;;;;;1.20;0.75;;;;;;;;;;6151564;23;20017;-86
2023/02/26 00:25:39;;;;;;;0.93;0.50;;;;;;;;;;6127274;23;20032;-89
2023/02/26 00:28:12;;;;;;;1.38;0.60;;;;;;;;;;6127077;23;20029;-89
2023/02/26 00:30:40;;;;;;;1.73;0.77;;;;;;;;;;6154149;23;20018;-86
2023/02/26 00:33:13;;;;;;;1.15;0.65;;;;;;;;;;6163581;23;20029;-89
2023/02/26 00:35:46;;;;;;;1.92;0.82;;;;;;;;;;6163671;23;20014;-87
2023/02/26 00:38:19;;;;;;;1.10;0.50;;;;;;;;;;6151534;23;20408;-87
2023/02/26 00:40:55;;;;;;;7.35;0.82;;;;;;;;;;6127441;23;20022;-88
2023/02/26 00:43:28;;;;;;;1.88;0.45;;;;;;;;;;6127569;23;20021;-88
2023/02/26 00:46:03;;;;;;;0.85;0.60;;;;;;;;;;6163533;23;20018;-89
2023/02/26 00:48:38;;;;;;;0.80;0.57;;;;;;;;;;6153759;23;20013;-87
2023/02/26 00:51:10;;;;;;;1.23;0.22;;;;;;;;;;6160054;23;20021;-87
2023/02/26 00:53:46;;;;;;;1.40;1.02;;;;;;;;;;6128119;23;20024;-85
2023/02/26 00:56:15;;;;;;;1.13;0.52;;;;;;;;;;6126803;23;20025;-88
2023/02/26 00:58:48;;;;;;;2.03;0.60;;;;;;;;;;6127688;23;20025;-86
2023/02/26 01:01:21;;;;;;;1.63;0.50;;;;;;;;;;6163026;23;20033;-86
2023/02/26 01:03:49;;;;;;;0.77;0.63;;;;;;;;;;6127611;23;20025;-86
2023/02/26 01:06:18;;;;;;;0.55;0.40;;;;;;;;;;6151153;23;20334;-88
2023/02/26 01:08:54;;;;;;;0.95;0.40;;;;;;;;;;6151746;23;20021;-88
2023/02/26 01:11:24;;;;;;;1.55;0.68;;;;;;;;;;6151629;23;20024;-86
2023/02/26 01:13:52;;;;;;;0.50;0.50;;;;;;;;;;6127374;23;20022;-87
2023/02/26 01:16:21;;;;;;;0.30;0.30;;;;;;;;;;6153988;23;20021;-88
2023/02/26 01:18:56;;;;;;;2.08;0.52;;;;;;;;;;6127133;23;20455;-87
2023/02/26 01:21:29;;;;;;;0.47;0.30;;;;;;;;;;6153675;23;20025;-87
2023/02/26 01:24:03;;;;;;;1.80;0.50;;;;;;;;;;6163614;23;20021;-87
2023/02/26 01:26:37;;;;;;;1.17;0.75;;;;;;;;;;6127394;23;20021;-89
2023/02/26 01:29:10;;;;;;;0.32;0.32;;;;;;;;;;6151517;23;20031;-89
2023/02/26 01:31:42;;;;;;;5.88;0.55;;;;;;;;;;6127089;23;20021;-86
2023/02/26 01:34:17;;;;;;;1.67;0.45;;;;;;;;;;6127888;23;20028;-89
2023/02/26 01:36:53;;;;;;;0.30;0.30;;;;;;;;;;6126935;23;20029;-88
2023/02/26 01:39:29;;;;;;;0.32;0.32;;;;;;;;;;6150990;23;20022;-88
2023/02/26 01:42:00;;;;;;;0.55;0.35;;;;;;;;;;6163574;23;20025;-86
2023/02/26 01:44:36;;;;;;;1.05;0.50;;;;;;;;;;6127196;23;20399;-86
2023/02/26 01:47:16;;;;;;;1.05;0.40;;;;;;;;;;6127326;23;20029;-88
2023/02/26 01:49:44;;;;;;;1.27;0.60;;;;;;;;;;6163691;23;20021;-87
2023/02/26 01:52:44;;;;;;;0.40;0.40;;;;;;;;;;6151493;23;20663;-87
2023/02/26 01:55:12;;;;;;;5.45;0.70;;;;;;;;;;6126788;23;20021;-87
2023/02/26 01:57:48;;;;;;;1.30;0.50;;;;;;;;;;6151312;23;20025;-89
2023/02/26 02:00:21;;;;;;;0.52;0.50;;;;;;;;;;6126762;23;20021;-88
2023/02/26 02:02:49;;;;;;;0.47;0.28;;;;;;;;;;6150996;23;20032;-87
2023/02/26 02:05:25;;;;;;;2.67;0.30;;;;;;;;;;6163318;23;20423;-87
2023/02/26 02:07:54;;;;;;;1.08;0.45;;;;;;;;;;6126407;23;20033;-88
2023/02/26 02:10:22;;;;;;;0.57;0.40;;;;;;;;;;6127659;23;20056;-88
2023/02/26 02:13:01;;;;;;;0.70;0.50;;;;;;;;;;6153399;23;20376;-87
2023/02/26 02:15:31;;;;;;;1.70;0.47;;;;;;;;;;6128407;23;20013;-87
2023/02/26 02:18:02;;;;;;;5.18;0.63;;;;;;;;;;6128720;23;20081;-88
2023/02/26 02:20:46;;;;;;;0.43;0.17;;;;;;;;;;6128014;23;20029;-87
2023/02/26 02:23:22;;;;;;;3.65;0.70;;;;;;;;;;6151611;23;20398;-86
2023/02/26 02:26:09;;;;;;;4.00;0.60;;;;;;;;;;6163787;23;20370;-88
2023/02/26 02:28:48;;;;;;;3.60;0.80;;;;;;;;;;6163773;23;20794;-87
2023/02/26 02:31:25;;;;;;;2.38;0.70;;;;;;;;;;6151310;23;20391;-88
2023/02/26 02:34:01;;;;;;;4.28;0.70;;;;;;;;;;6127069;23;20383;-88
2023/02/26 02:36:36;;;;;;;4.40;0.85;;;;;;;;;;6163709;23;20379;-89
2023/02/26 02:39:10;;;;;;;1.38;0.52;;;;;;;;;;6127217;23;20394;-89
2023/02/26 02:41:45;;;;;;;4.55;0.93;;;;;;;;;;6163583;23;20383;-89
2023/02/26 02:44:19;;;;;;;5.05;0.80;;;;;;;;;;6163523;23;20386;-89
2023/02/26 02:46:50;;;;;;;3.40;0.60;;;;;;;;;;6127166;23;20828;-89
2023/02/26 02:49:25;;;;;;;3.83;0.80;;;;;;;;;;6127066;23;20390;-88
2023/02/26 02:51:55;;;;;;;3.65;0.63;;;;;;;;;;6153440;23;20374;-90
2023/02/26 02:54:31;;;;;;;2.70;0.80;;;;;;;;;;6163310;23;20383;-90
2023/02/26 02:57:02;;;;;;;5.20;0.60;;;;;;;;;;6163456;23;20839;-89
2023/02/26 02:59:39;;;;;;;4.55;1.00;;;;;;;;;;6151073;23;20387;-89
2023/02/26 03:02:16;;;;;;;3.72;0.88;;;;;;;;;;6126668;23;20391;-86
2023/02/26 03:04:44;;;;;;;3.80;0.63;;;;;;;;;;6126782;23;20386;-89
2023/02/26 03:07:17;;;;;;;4.27;1.10;;;;;;;;;;6126881;23;20453;-89
2023/02/26 03:09:53;;;;;;;2.80;0.70;;;;;;;;;;6163358;23;20377;-89
2023/02/26 03:12:27;;;;;;;1.48;0.50;;;;;;;;;;6126920;23;20394;-89
2023/02/26 03:15:00;;;;;;;3.85;0.90;;;;;;;;;;6151586;23;20382;-90
2023/02/26 03:17:39;;;;;;;2.80;0.82;;;;;;;;;;6127121;23;20471;-89
2023/02/26 03:20:17;;;;;;;2.35;0.88;;;;;;;;;;6126622;23;20382;-89
2023/02/26 03:22:53;;;;;;;3.17;0.70;;;;;;;;;;6126208;23;20402;-90
2023/02/26 03:25:27;;;;;;;4.07;1.05;;;;;;;;;;6126835;23;20375;-90
2023/02/26 03:28:04;;;;;;;3.70;0.85;;;;;;;;;;6151147;23;20379;-88
2023/02/26 03:30:39;;;;;;;3.95;0.80;;;;;;;;;;6151343;23;20383;-89
2023/02/26 03:33:15;;;;;;;2.35;0.70;;;;;;;;;;6126459;23;20391;-90
2023/02/26 03:35:50;;;;;;;5.55;0.90;;;;;;;;;;6151135;23;20393;-90
2023/02/26 03:38:27;;;;;;;2.15;0.80;;;;;;;;;;6126376;23;20398;-90
2023/02/26 03:40:57;;;;;;;2.00;0.60;;;;;;;;;;6126957;23;20717;-90
2023/02/26 03:43:28;;;;;;;3.50;1.00;;;;;;;;;;6125923;23;20409;-90
2023/02/26 03:46:06;;;;;;;3.27;0.70;;;;;;;;;;6151063;23;20371;-89
2023/02/26 03:48:36;;;;;;;5.28;0.70;;;;;;;;;;6126135;23;20421;-85
2023/02/26 03:51:10;;;;;;;2.67;0.50;;;;;;;;;;6159481;23;20501;-88
2023/02/26 03:53:58;;;;;;;2.80;0.80;;;;;;;;;;6162887;23;20378;-89
2023/02/26 03:56:36;;;;;;;4.70;0.70;;;;;;;;;;6150690;23;20387;-89
2023/02/26 03:59:44;;;;;;;3.28;0.90;;;;;;;;;;6134044;23;20461;-88
2023/02/26 04:02:44;;;;;;;4.90;0.80;;;;;;;;;;6162771;23;20465;-90
2023/02/26 04:05:20;;;;;;;3.35;0.70;;;;;;;;;;6150723;23;20677;-90
2023/02/26 04:07:49;;;;;;;4.60;0.73;;;;;;;;;;6126632;23;20394;-91
2023/02/26 04:10:19;;;;;;;3.97;0.75;;;;;;;;;;6125561;23;20390;-90
2023/02/26 04:12:51;;;;;;;5.47;1.00;;;;;;;;;;6126041;23;20379;-88
2023/02/26 04:15:19;;;;;;;4.17;0.80;;;;;;;;;;6125729;23;20772;-88
2023/02/26 04:17:47;;;;;;;2.42;0.70;;;;;;;;;;6126417;23;20385;-84
2023/02/26 04:20:21;;;;;;;2.40;0.75;;;;;;;;;;6150086;23;20386;-90
2023/02/26 04:22:54;;;;;;;3.60;0.70;;;;;;;;;;6126048;23;20887;-88
2023/02/26 04:25:27;;;;;;;2.53;0.80;;;;;;;;;;6150614;23;20375;-90
2023/02/26 04:28:01;;;;;;;2.60;0.70;;;;;;;;;;6126687;23;20741;-90
2023/02/26 04:30:30;;;;;;;3.97;0.75;;;;;;;;;;6150538;23;20697;-85
2023/02/26 04:33:04;;;;;;;2.90;0.60;;;;;;;;;;6125889;23;20386;-90
2023/02/26 04:35:33;;;;;;;4.47;0.73;;;;;;;;;;6152670;23;20389;-90
2023/02/26 04:38:06;;;;;;;3.67;0.73;;;;;;;;;;6162439;23;20375;-85
2023/02/26 04:40:39;;;;;;;3.17;0.80;;;;;;;;;;6150254;23;20764;-90
2023/02/26 04:43:10;;;;;;;4.28;0.75;;;;;;;;;;6125515;23;20832;-89
2023/02/26 04:45:52;;;;;;;2.63;0.70;;;;;;;;;;6150700;23;20375;-90
2023/02/26 04:48:20;;;;;;;5.13;0.70;;;;;;;;;;6125577;23;20387;-91
2023/02/26 04:50:49;;;;;;;2.63;0.88;;;;;;;;;;6125963;23;20875;-91
2023/02/26 04:53:16;;;;;;;3.35;0.70;;;;;;;;;;6125877;23;20387;-90
2023/02/26 04:55:44;;;;;;;5.40;0.68;;;;;;;;;;6125508;23;20777;-89
2023/02/26 04:58:12;;;;;;;3.85;0.90;;;;;;;;;;6126034;23;20378;-91
2023/02/26 05:00:47;;;;;;;2.42;0.80;;;;;;;;;;6150428;23;20882;-88
2023/02/26 05:03:20;;;;;;;3.00;0.70;;;;;;;;;;6125800;23;20378;-90
2023/02/26 05:05:54;;;;;;;1.83;0.75;;;;;;;;;;6126051;23;20383;-87
2023/02/26 05:08:27;;;;;;;3.20;0.80;;;;;;;;;;6150650;23;20387;-89
2023/02/26 05:11:00;;;;;;;4.23;0.80;;;;;;;;;;6125962;23;20390;-90
2023/02/26 05:13:33;;;;;;;2.67;0.68;;;;;;;;;;6162333;23;20375;-89
2023/02/26 05:16:07;;;;;;;2.88;0.68;;;;;;;;;;6125408;23;20391;-87
2023/02/26 05:18:39;;;;;;;4.32;0.88;;;;;;;;;;6126014;23;20390;-90
2023/02/26 05:21:09;;;;;;;2.20;0.73;;;;;;;;;;6125206;23;20383;-89
2023/02/26 05:23:41;;;;;;;4.65;0.75;;;;;;;;;;6149803;23;20394;-90
2023/02/26 05:26:14;;;;;;;2.60;0.73;;;;;;;;;;6161959;23;20370;-88
2023/02/26 05:28:48;;;;;;;7.70;0.90;;;;;;;;;;6126403;23;20398;-90
2023/02/26 05:31:20;;;;;;;1.90;0.60;;;;;;;;;;6125627;23;20398;-86
2023/02/26 05:33:53;;;;;;;3.37;0.90;;;;;;;;;;6149638;23;20390;-90
2023/02/26 05:36:27;;;;;;;2.55;0.65;;;;;;;;;;6162107;23;20879;-89
2023/02/26 05:38:55;;;;;;;2.50;0.80;;;;;;;;;;6152334;23;20378;-88
2023/02/26 05:41:28;;;;;;;3.50;0.73;;;;;;;;;;6162131;23;20375;-90
2023/02/26 05:44:01;;;;;;;2.38;0.90;;;;;;;;;;6125449;23;20390;-90
2023/02/26 05:46:34;;;;;;;2.75;0.80;;;;;;;;;;6150915;23;20382;-89
2023/02/26 05:49:01;;;;;;;3.05;0.80;;;;;;;;;;6127152;23;21135;-88
2023/02/26 05:51:35;;;;;;;5.78;0.75;;;;;;;;;;6158762;23;20843;-90
2023/02/26 05:54:08;;;;;;;5.60;1.08;;;;;;;;;;6127261;23;20383;-88
2023/02/26 05:56:36;;;;;;;3.73;1.00;;;;;;;;;;6127096;23;20402;-89
2023/02/26 05:59:09;;;;;;;5.07;1.40;;;;;;;;;;6163990;23;20401;-89
2023/02/26 06:01:42;;;;;;;4.47;1.45;;;;;;;;;;6149495;23;20387;-90
2023/02/26 06:04:10;;;;;;;4.50;0.97;;;;;;;;;;6124693;23;20452;-87
2023/02/26 06:06:44;;;;;;;4.85;1.70;;;;;;;;;;6162893;23;20386;-88
2023/02/26 06:09:17;;;;;;;5.43;1.38;;;;;;;;;;6163232;23;20382;-89
2023/02/26 06:11:44;;;;;;;5.80;1.60;;;;;;;;;;6153537;23;20375;-87
2023/02/26 06:14:17;;;;;;;10.82;2.90;;;;;;;;;;6163321;23;20386;-89
2023/02/26 06:16:50;;;;;;;8.27;2.63;;;;;;;;;;6162944;23;20405;-89
2023/02/26 06:19:23;;;;;;;8.53;1.90;;;;;;;;;;6150997;23;20398;-87
2023/02/26 06:21:57;;;;;;;7.55;1.92;;;;;;;;;;6127118;23;20402;-89
2023/02/26 06:24:29;;;;;;;4.32;1.60;;;;;;;;;;6126475;23;20681;-89
2023/02/26 06:27:02;;;;;;;4.70;1.25;;;;;;;;;;6126171;23;20382;-90
2023/02/26 06:29:30;;;;;;;4.88;1.10;;;;;;;;;;6153424;23;20359;-90
2023/02/26 06:32:03;;;;;;;3.38;1.20;;;;;;;;;;6162900;23;20379;-87
2023/02/26 06:34:36;;;;;;;3.20;1.10;;;;;;;;;;6150666;23;20386;-89
2023/02/26 06:37:10;;;;;;;3.50;1.13;;;;;;;;;;6162599;23;20387;-88
2023/02/26 06:39:38;;;;;;;5.63;1.00;;;;;;;;;;6153390;23;20436;-89
2023/02/26 06:42:10;;;;;;;3.77;1.27;;;;;;;;;;6126257;23;20382;-88
2023/02/26 06:44:43;;;;;;;2.00;0.90;;;;;;;;;;6150399;23;20387;-89
2023/02/26 06:47:11;;;;;;;5.38;0.85;;;;;;;;;;6152866;23;20370;-89
2023/02/26 06:49:44;;;;;;;3.08;0.80;;;;;;;;;;6155437;23;20406;-86
2023/02/26 06:52:13;;;;;;;3.53;0.98;;;;;;;;;;6125441;23;20394;-90
2023/02/26 06:54:41;;;;;;;2.87;0.87;;;;;;;;;;6126405;23;20429;-88
2023/02/26 06:57:13;;;;;;;2.97;1.10;;;;;;;;;;6162588;23;20394;-91
2023/02/26 06:59:41;;;;;;;3.28;1.02;;;;;;;;;;6152979;23;20371;-88
2023/02/26 07:02:14;;;;;;;5.55;1.40;;;;;;;;;;6127124;23;20383;-89
2023/02/26 07:04:47;;;;;;;2.53;0.80;;;;;;;;;;6151412;23;20397;-90
2023/02/26 07:07:21;;;;;;;2.75;0.85;;;;;;;;;;6162569;23;20839;-90
2023/02/26 07:09:54;;;;;;;3.88;1.00;;;;;;;;;;6126463;23;20382;-89
2023/02/26 07:12:27;;;;;;;2.45;0.70;;;;;;;;;;6151115;23;20386;-88
2023/02/26 07:15:00;;;;;;;2.45;0.90;;;;;;;;;;6126366;23;20860;-89
2023/02/26 07:17:32;;;;;;;3.07;0.73;;;;;;;;;;6126147;23;20442;-86
2023/02/26 07:20:09;;;;;;;3.42;0.70;;;;;;;;;;6150910;23;20383;-88
2023/02/26 07:22:43;;;;;;;2.03;0.60;;;;;;;;;;6150958;23;20402;-87
2023/02/26 07:25:15;;;;;;;3.30;0.70;;;;;;;;;;6163245;23;21131;-86
2023/02/26 07:27:48;;;;;;;3.30;0.80;;;;;;;;;;6163017;23;20370;-90
2023/02/26 07:30:16;;;;;;;3.20;0.60;;;;;;;;;;6126938;23;20395;-88
2023/02/26 07:32:49;;;;;;;2.80;0.70;;;;;;;;;;6127263;23;20387;-89
2023/02/26 07:35:22;;;;;;;3.80;0.70;;;;;;;;;;6163019;23;20374;-86
2023/02/26 07:37:56;;;;;;;3.83;0.80;;;;;;;;;;6150907;23;20426;-88
2023/02/26 07:40:28;;;;;;;4.28;0.65;;;;;;;;;;6151008;23;20390;-90
2023/02/26 07:42:56;;;;;;;2.33;0.65;;;;;;;;;;6153062;23;20374;-89
2023/02/26 07:45:29;;;;;;;3.95;0.80;;;;;;;;;;6163041;23;20390;-89
2023/02/26 07:48:02;;;;;;;4.03;0.70;;;;;;;;;;6127081;23;20396;-90
2023/02/26 07:50:34;;;;;;;2.28;0.50;;;;;;;;;;6161509;23;20412;-88
2023/02/26 07:53:09;;;;;;;3.50;1.20;;;;;;;;;;6125961;23;20398;-90
2023/02/26 07:55:42;;;;;;;2.95;1.08;;;;;;;;;;6162633;23;20397;-89
2023/02/26 07:58:14;;;;;;;7.07;1.25;;;;;;;;;;6126268;23;20393;-89
2023/02/26 08:00:47;;;;;;;2.38;1.00;;;;;;;;;;6162647;23;20398;-88
2023/02/26 08:03:20;;;;;;;3.38;0.80;;;;;;;;;;6162457;23;20375;-90
2023/02/26 08:05:48;;;;;;;3.90;0.97;;;;;;;;;;6125365;23;20390;-88
2023/02/26 08:08:22;;;;;;;3.70;1.10;;;;;;;;;;6161829;23;20379;-89
2023/02/26 08:10:50;;;;;;;4.10;1.00;;;;;;;;;;6126327;23;20386;-88
2023/02/26 08:13:22;;;;;;;3.10;0.90;;;;;;;;;;6125842;23;20705;-86
2023/02/26 08:15:55;;;;;;;3.95;1.13;;;;;;;;;;6162589;23;20375;-87
2023/02/26 08:18:28;;;;;;;2.15;0.98;;;;;;;;;;6162197;23;20851;-86
2023/02/26 08:21:01;;;;;;;2.58;0.90;;;;;;;;;;6150501;23;20387;-88
2023/02/26 08:23:30;;;;;;;4.00;0.80;;;;;;;;;;6152798;23;20386;-88
2023/02/26 08:26:03;;;;;;;3.80;1.00;;;;;;;;;;6162716;23;20371;-88
2023/02/26 08:28:36;;;;;;;5.75;1.00;;;;;;;;;;6126057;23;20390;-90
2023/02/26 08:31:09;;;;;;;2.90;1.10;;;;;;;;;;6162495;23;20385;-89
2023/02/26 08:33:42;;;;;;;2.95;0.93;;;;;;;;;;6150893;23;20689;-89
2023/02/26 08:36:15;;;;;;;2.47;0.88;;;;;;;;;;6162320;23;20379;-87
2023/02/26 08:38:44;;;;;;;4.85;1.02;;;;;;;;;;6152765;23;20386;-87
2023/02/26 08:41:17;;;;;;;7.60;1.20;;;;;;;;;;6126269;23;20670;-90
2023/02/26 08:43:50;;;;;;;2.85;1.05;;;;;;;;;;6159625;23;20378;-90
2023/02/26 08:46:23;;;;;;;4.60;1.20;;;;;;;;;;6160666;23;20379;-85
2023/02/26 08:48:55;;;;;;;4.72;1.30;;;;;;;;;;6161470;23;20363;-87
2023/02/26 08:51:28;;;;;;;3.50;1.40;;;;;;;;;;6126606;23;20398;-88
2023/02/26 08:54:02;;;;;;;5.28;1.17;;;;;;;;;;6161553;23;20379;-89
2023/02/26 08:56:35;;;;;;;3.65;1.17;;;;;;;;;;6161423;23;20379;-87
2023/02/26 08:59:03;;;;;;;3.77;1.10;;;;;;;;;;6150478;23;20391;-88
2023/02/26 09:01:36;;;;;;;5.10;0.90;;;;;;;;;;6162729;23;20375;-88
2023/02/26 09:04:08;;;;;;;6.20;1.10;;;;;;;;;;6162085;23;20386;-89
2023/02/26 09:06:36;;;;;;;5.60;1.23;;;;;;;;;;6151540;23;20654;-88
2023/02/26 09:09:10;;;;;;;4.28;1.08;;;;;;;;;;6162168;23;20402;-89
2023/02/26 09:11:43;;;;;;;3.40;1.33;;;;;;;;;;6150152;23;20383;-90
2023/02/26 09:14:16;;;;;;;4.03;1.30;;;;;;;;;;6125948;23;20395;-91
2023/02/26 09:16:48;;;;;;;4.75;1.20;;;;;;;;;;6149385;23;20387;-86
2023/02/26 09:19:16;;;;;;;2.33;0.83;;;;;;;;;;6125159;23;20390;-88
2023/02/26 09:21:49;;;;;;;2.95;1.02;;;;;;;;;;6149709;23;20394;-90
2023/02/26 09:24:24;;;;;;;6.05;1.30;;;;;;;;;;6162232;23;20375;-90
2023/02/26 09:26:57;;;;;;;3.47;0.90;;;;;;;;;;6150215;23;20394;-87
2023/02/26 09:29:29;;;;;;;3.00;0.90;;;;;;;;;;6161948;23;20737;-91
2023/02/26 09:32:03;;;;;;;2.28;0.70;;;;;;;;;;6126192;23;21186;-89
2023/02/26 09:34:37;;;;;;;3.67;1.00;;;;;;;;;;6149972;23;20387;-92
2023/02/26 09:37:05;;;;;;;3.75;0.60;;;;;;;;;;6152511;23;20371;-89
2023/02/26 09:39:39;;;;;;;4.00;0.90;;;;;;;;;;6150169;23;20855;-90
2023/02/26 09:42:10;;;;;;;4.15;0.98;;;;;;;;;;6152253;23;20813;-88
2023/02/26 09:44:38;;;;;;;5.85;0.90;;;;;;;;;;6125967;23;20381;-90
2023/02/26 09:47:13;;;;;;;3.20;0.70;;;;;;;;;;6150013;23;20375;-89
2023/02/26 09:49:50;;;;;;;2.95;0.70;;;;;;;;;;6162364;23;20374;-90
2023/02/26 09:52:25;;;;;;;5.75;0.82;;;;;;;;;;6126407;23;20397;-85
2023/02/26 09:55:00;;;;;;;2.33;0.60;;;;;;;;;;6150031;23;20390;-87
2023/02/26 09:57:34;;;;;;;1.50;0.60;;;;;;;;;;6161936;23;20367;-90
2023/02/26 10:00:14;;;;;;;2.53;0.60;;;;;;;;;;6161906;23;20418;-87
2023/02/26 10:02:51;;;;;;;1.02;0.50;;;;;;;;;;6125939;23;20386;-89
2023/02/26 10:05:28;;;;;;;1.20;0.50;;;;;;;;;;6125318;23;20397;-85
2023/02/26 10:08:03;;;;;;;4.43;0.60;;;;;;;;;;6125565;23;20841;-89
2023/02/26 10:10:44;;;;;;;3.10;0.80;;;;;;;;;;6161717;23;20370;-86
2023/02/26 10:13:21;;;;;;;2.35;0.50;;;;;;;;;;6161656;23;20375;-87
2023/02/26 10:15:55;;;;;;;1.77;0.50;;;;;;;;;;6125582;23;20391;-89
2023/02/26 10:18:31;;;;;;;1.87;0.50;;;;;;;;;;6125726;23;20696;-86
2023/02/26 10:21:01;;;;;;;1.65;0.60;;;;;;;;;;6151849;23;20382;-86
2023/02/26 10:23:32;;;;;;;2.83;0.60;;;;;;;;;;6149424;23;20911;-88
2023/02/26 10:26:11;;;;;;;1.65;0.60;;;;;;;;;;6161752;23;20443;-88
2023/02/26 10:28:50;;;;;;;2.97;0.70;;;;;;;;;;6125565;23;20394;-86
2023/02/26 10:31:26;;;;;;;3.30;0.50;;;;;;;;;;6162035;23;20367;-86
2023/02/26 10:33:59;;;;;;;1.50;0.60;;;;;;;;;;6163595;23;20681;-88
2023/02/26 10:36:29;;;;;;;1.02;0.40;;;;;;;;;;6163151;23;20371;-84
2023/02/26 10:39:03;;;;;;;2.20;0.50;;;;;;;;;;6163485;23;20388;-86
2023/02/26 10:41:38;;;;;;;2.03;0.52;;;;;;;;;;6163273;23;20379;-88
2023/02/26 10:44:16;;;;;;;1.50;0.50;;;;;;;;;;6151332;23;20394;-86
2023/02/26 10:46:53;;;;;;;1.33;0.50;;;;;;;;;;6126165;23;20398;-87
2023/02/26 10:49:36;;;;;;;2.73;0.50;;;;;;;;;;6163494;23;20473;-86
2023/02/26 10:52:11;;;;;;;1.60;0.50;;;;;;;;;;6155955;23;20371;-84
2023/02/26 10:54:48;;;;;;;2.10;0.45;;;;;;;;;;6151151;23;20386;-86
2023/02/26 10:57:24;;;;;;;0.98;0.40;;;;;;;;;;6163204;23;20378;-87
2023/02/26 10:59:57;;;;;;;1.40;0.60;;;;;;;;;;6127141;23;20390;-87
2023/02/26 11:02:34;;;;;;;1.83;0.50;;;;;;;;;;6161024;23;20406;-86
2023/02/26 11:05:02;;;;;;;2.50;0.50;;;;;;;;;;6124821;23;20705;-88
2023/02/26 11:07:37;;;;;;;1.08;0.47;;;;;;;;;;6125403;23;20397;-86
2023/02/26 11:10:13;;;;;;;1.70;0.60;;;;;;;;;;6152981;23;20387;-87
2023/02/26 11:12:42;;;;;;;2.00;0.60;;;;;;;;;;6162225;23;20390;-85
2023/02/26 11:15:13;;;;;;;1.50;0.47;;;;;;;;;;6152349;23;20383;-86
2023/02/26 11:17:47;;;;;;;2.88;0.65;;;;;;;;;;6126337;23;20397;-85
2023/02/26 11:20:25;;;;;;;2.78;0.70;;;;;;;;;;6156593;23;20402;-89
2023/02/26 11:22:55;;;;;;;2.25;0.50;;;;;;;;;;6150599;23;20398;-86
2023/02/26 11:25:29;;;;;;;3.47;0.50;;;;;;;;;;6126459;23;20393;-87
2023/02/26 11:28:00;;;;;;;1.52;0.60;;;;;;;;;;6150508;23;20386;-87
2023/02/26 11:30:35;;;;;;;2.22;0.60;;;;;;;;;;6150644;23;20383;-87
2023/02/26 11:33:13;;;;;;;2.42;0.57;;;;;;;;;;6126886;23;20864;-87
2023/02/26 11:35:41;;;;;;;1.23;0.50;;;;;;;;;;6126523;23;20390;-87
2023/02/26 11:38:14;;;;;;;2.30;0.60;;;;;;;;;;6126710;23;20709;-86
2023/02/26 11:40:48;;;;;;;2.10;0.70;;;;;;;;;;6126377;23;20410;-87
2023/02/26 11:43:19;;;;;;;3.30;0.60;;;;;;;;;;6152896;23;20407;-86
2023/02/26 11:45:53;;;;;;;1.95;0.50;;;;;;;;;;6126607;23;20386;-85
2023/02/26 11:48:28;;;;;;;1.42;0.40;;;;;;;;;;6152851;23;20382;-87
2023/02/26 11:51:02;;;;;;;3.47;0.60;;;;;;;;;;6126045;23;20410;-87
2023/02/26 11:53:36;;;;;;;1.90;0.50;;;;;;;;;;6126216;23;20391;-86
2023/02/26 11:56:08;;;;;;;3.22;0.80;;;;;;;;;;6150950;23;20387;-87
2023/02/26 11:58:37;;;;;;;2.50;0.77;;;;;;;;;;6150371;23;20427;-87
2023/02/26 12:01:07;;;;;;;4.05;0.70;;;;;;;;;;6153028;23;20386;-87
2023/02/26 12:03:43;;;;;;;2.83;0.60;;;;;;;;;;6162864;23;20393;-88
2023/02/26 12:06:15;;;;;;;1.63;0.50;;;;;;;;;;6162657;23;20369;-88
2023/02/26 12:08:49;;;;;;;2.40;0.70;;;;;;;;;;6126671;23;20397;-87
2023/02/26 12:11:55;;;;;;;2.00;0.70;;;;;;;;;;6127279;23;20387;-87
2023/02/26 12:14:43;;;;;;;2.40;0.60;;;;;;;;;;6066897;23;20386;-86
2023/02/26 12:17:19;;;;;;;2.90;0.80;;;;;;;;;;6064525;23;20390;-86
2023/02/26 12:19:54;;;;;;;1.80;0.70;;;;;;;;;;6136089;23;20414;-86
2023/02/26 12:22:27;;;;;;;2.35;0.65;;;;;;;;;;6152686;23;20681;-86
2023/02/26 12:25:11;;;;;;;2.00;0.60;;;;;;;;;;6150911;23;20391;-88
2023/02/26 12:27:52;;;;;;;1.45;0.50;;;;;;;;;;6150561;23;20391;-86
2023/02/26 12:30:25;;;;;;;2.03;0.50;;;;;;;;;;6163102;23;20366;-86
2023/02/26 12:33:16;;;;;;;3.05;0.60;;;;;;;;;;6126127;23;20395;-86
2023/02/26 12:36:04;;;;;;;2.38;0.88;;;;;;;;;;6162001;23;20386;-89
2023/02/26 12:38:36;;;;;;;4.13;0.88;;;;;;;;;;6125422;23;20386;-87
2023/02/26 12:41:24;;;;;;;1.05;0.52;;;;;;;;;;6150187;23;20397;-86
2023/02/26 12:43:58;;;;;;;2.67;0.70;;;;;;;;;;6123457;23;20705;-86
2023/02/26 12:46:35;;;;;;;2.70;0.80;;;;;;;;;;6148946;23;20403;-86
2023/02/26 12:49:28;;;;;;;2.00;0.80;;;;;;;;;;6149322;23;20383;-86
2023/02/26 12:52:08;;;;;;;4.63;0.82;;;;;;;;;;6125166;23;20903;-87
2023/02/26 12:54:45;;;;;;;1.77;0.50;;;;;;;;;;6149296;23;20697;-87
2023/02/26 12:57:32;;;;;;;3.20;0.60;;;;;;;;;;6125321;23;20391;-86
2023/02/26 13:00:16;;;;;;;5.30;0.70;;;;;;;;;;6149762;23;20390;-86
2023/02/26 13:03:04;;;;;;;3.17;0.80;;;;;;;;;;6162142;23;20386;-87
2023/02/26 13:05:47;;;;;;;2.25;0.70;;;;;;;;;;6126480;23;20382;-88
2023/02/26 13:08:18;;;;;;;4.57;0.88;;;;;;;;;;6162013;23;20374;-86
2023/02/26 13:10:59;;;;;;;3.67;1.00;;;;;;;;;;6162168;23;20430;-87
2023/02/26 13:13:42;;;;;;;3.40;0.80;;;;;;;;;;6162149;23;20839;-87
2023/02/26 13:16:15;;;;;;;3.08;0.77;;;;;;;;;;6162096;23;20828;-87
2023/02/26 13:18:50;;;;;;;3.13;0.93;;;;;;;;;;6161705;23;20389;-87
2023/02/26 13:21:25;;;;;;;5.47;1.00;;;;;;;;;;6149666;23;20907;-86
2023/02/26 13:24:01;;;;;;;2.90;1.00;;;;;;;;;;6125193;23;21058;-87
2023/02/26 13:26:29;;;;;;;3.00;0.80;;;;;;;;;;6125920;23;20383;-87
2023/02/26 13:29:04;;;;;;;4.13;0.90;;;;;;;;;;6125786;23;20398;-88
2023/02/26 13:31:41;;;;;;;5.03;0.97;;;;;;;;;;6161998;23;20375;-86
2023/02/26 13:34:12;;;;;;;6.20;1.23;;;;;;;;;;6125189;23;20383;-87
2023/02/26 13:36:41;;;;;;;4.00;0.98;;;;;;;;;;6149837;23;20378;-88
2023/02/26 13:39:29;;;;;;;3.42;0.80;;;;;;;;;;6125209;23;20375;-86
2023/02/26 13:42:06;;;;;;;3.58;0.90;;;;;;;;;;6150035;23;20388;-88
2023/02/26 13:44:38;;;;;;;2.67;0.80;;;;;;;;;;6162161;23;20840;-87
2023/02/26 13:47:26;;;;;;;3.47;1.00;;;;;;;;;;6161874;23;20390;-87
2023/02/26 13:50:00;;;;;;;2.75;0.80;;;;;;;;;;6150102;23;20394;-85
2023/02/26 13:52:35;;;;;;;2.38;0.93;;;;;;;;;;6126965;23;20383;-83
2023/02/26 13:55:04;;;;;;;4.10;0.80;;;;;;;;;;6126215;23;20394;-83
2023/02/26 13:57:37;;;;;;;3.05;0.90;;;;;;;;;;6153309;23;20828;-83
2023/02/26 14:00:21;;;;;;;6.15;1.05;;;;;;;;;;6126483;23;20389;-83
2023/02/26 14:02:55;;;;;;;5.18;1.08;;;;;;;;;;6151127;23;20383;-83
2023/02/26 14:05:36;;;;;;;4.15;1.02;;;;;;;;;;6162846;23;20389;-83
2023/02/26 14:08:25;;;;;;;5.88;1.27;;;;;;;;;;6120364;23;20390;-84
2023/02/26 14:10:59;;;;;;;3.45;0.95;;;;;;;;;;6116292;23;20871;-85
2023/02/26 14:13:33;;;;;;;3.70;1.10;;;;;;;;;;6112884;23;20383;-85
2023/02/26 14:16:11;;;;;;;8.27;1.95;;;;;;;;;;6133921;23;21382;-84
2023/02/26 14:18:42;;;;;;;8.70;2.30;;;;;;;;;;6143664;23;20724;-84
2023/02/26 14:21:34;;;;;;;5.53;1.10;;;;;;;;;;6111919;23;20398;-84
2023/02/26 14:24:14;;;;;;;4.80;1.03;;;;;;;;;;6134544;23;20390;-84
2023/02/26 14:26:46;;;;;;;3.60;0.98;;;;;;;;;;6112187;23;20387;-84
2023/02/26 14:29:22;;;;;;;6.05;1.20;;;;;;;;;;6151501;23;20386;-83
2023/02/26 14:31:54;;;;;;;3.40;0.90;;;;;;;;;;6137534;23;20889;-84
2023/02/26 14:34:28;;;;;;;5.47;1.13;;;;;;;;;;6113474;23;20441;-84
2023/02/26 14:37:05;;;;;;;5.10;1.17;;;;;;;;;;6148436;23;20371;-85
2023/02/26 14:39:35;;;;;;;4.97;1.02;;;;;;;;;;6113402;23;20398;-85
2023/02/26 14:42:11;;;;;;;5.13;1.15;;;;;;;;;;6149230;23;20386;-84
2023/02/26 14:44:46;;;;;;;6.75;1.17;;;;;;;;;;6119800;23;20397;-85
2023/02/26 14:47:19;;;;;;;3.88;1.00;;;;;;;;;;6115143;23;20390;-83
2023/02/26 14:49:48;;;;;;;4.88;1.00;;;;;;;;;;6111096;23;21079;-84
2023/02/26 14:52:28;;;;;;;1.13;0.60;;;;;;;;;;6111385;23;20374;-84
2023/02/26 14:55:15;;;;;;;2.58;0.70;;;;;;;;;;6137057;23;20386;-84
2023/02/26 14:57:53;;;;;;;3.00;1.20;;;;;;;;;;6150855;23;20382;-84
2023/02/26 15:00:30;;;;;;;3.67;0.80;;;;;;;;;;6142550;23;20993;-83
2023/02/26 15:03:13;;;;;;;5.15;1.00;;;;;;;;;;6153411;23;20398;-85
2023/02/26 15:05:44;;;;;;;5.03;1.00;;;;;;;;;;6148427;23;20371;-84
2023/02/26 15:08:29;;;;;;;1.60;0.73;;;;;;;;;;6106558;23;20394;-86
2023/02/26 15:11:12;;;;;;;5.57;1.05;;;;;;;;;;6110211;23;21025;-84
2023/02/26 15:13:53;;;;;;;6.50;1.30;;;;;;;;;;6111420;23;20406;-84
2023/02/26 15:16:26;;;;;;;2.83;1.02;;;;;;;;;;6106700;23;20398;-84
2023/02/26 15:19:10;;;;;;;5.47;1.20;;;;;;;;;;6108937;23;20398;-84
2023/02/26 15:21:49;;;;;;;2.70;0.77;;;;;;;;;;6130155;23;20392;-85
2023/02/26 15:24:16;;;;;;;4.20;0.95;;;;;;;;;;6108952;23;20387;-84
2023/02/26 15:26:51;;;;;;;6.10;0.90;;;;;;;;;;6143963;23;21251;-84